Time;durP1;ratioP1;P1;durP2;ratioP2;P2;SDS_P1;SDS_P2;PMS_P1;PMS_P2;Temp;Humidity;BMP_temperature;BMP_pressure;BME280_temperature;BME280_humidity;BME280_pressure;Samples;Min_cycle;Max_cycle;Signal;HPM_P1;HPM_P2
2021/11/04 00:00:07;;;;;;;31.65;22.92;;;;;;;9.75;100.00;100701.72;5051285;28;20040;-72
2021/11/04 00:02:34;;;;;;;31.00;22.13;;;;;;;9.78;100.00;100713.03;5067657;28;20045;-73
2021/11/04 00:05:00;;;;;;;35.78;22.77;;;;;;;9.48;100.00;100677.34;5072214;28;20036;-71
2021/11/04 00:07:25;;;;;;;33.30;23.65;;;;;;;9.67;100.00;100707.41;5072631;28;20033;-72
2021/11/04 00:09:52;;;;;;;32.10;22.38;;;;;;;9.74;100.00;100711.13;5054276;28;20033;-72
2021/11/04 00:12:17;;;;;;;29.98;20.67;;;;;;;9.67;100.00;100707.41;5069110;28;20087;-70
2021/11/04 00:14:43;;;;;;;30.42;21.67;;;;;;;9.58;100.00;100712.13;5064113;28;20028;-68
2021/11/04 00:17:09;;;;;;;29.42;21.25;;;;;;;9.60;100.00;100704.50;5070265;28;20074;-69
2021/11/04 00:19:34;;;;;;;32.58;22.38;;;;;;;9.84;100.00;100727.88;5061625;28;20029;-67
2021/11/04 00:22:01;;;;;;;30.92;21.30;;;;;;;9.88;100.00;100717.78;5065821;28;20437;-69
2021/11/04 00:24:26;;;;;;;32.17;21.92;;;;;;;9.84;100.00;100707.25;5042260;28;20595;-71
2021/11/04 00:26:52;;;;;;;27.83;20.13;;;;;;;9.82;100.00;100704.63;5065274;28;20067;-69
2021/11/04 00:29:18;;;;;;;36.72;23.15;;;;;;;10.04;100.00;100732.22;5061412;28;20025;-69
2021/11/04 00:31:44;;;;;;;30.00;20.75;;;;;;;10.10;100.00;100734.16;5063735;28;20394;-68
2021/11/04 00:34:09;;;;;;;28.65;20.70;;;;;;;10.09;100.00;100734.97;5063516;28;20464;-66
2021/11/04 00:36:35;;;;;;;26.73;19.17;;;;;;;10.02;100.00;100738.13;5060830;28;20052;-68
2021/11/04 00:39:00;;;;;;;31.13;21.17;;;;;;;9.99;100.00;100733.72;5065339;28;20055;-68
2021/11/04 00:41:25;;;;;;;27.35;19.25;;;;;;;9.73;100.00;100729.09;5064307;28;20051;-68
2021/11/04 00:43:51;;;;;;;28.15;19.58;;;;;;;9.59;100.00;100720.75;5071888;28;20078;-71
2021/11/04 00:46:16;;;;;;;28.90;21.23;;;;;;;9.26;100.00;100648.84;5063156;28;20526;-69
2021/11/04 00:48:42;;;;;;;29.13;20.73;;;;;;;9.82;100.00;100730.41;5063903;28;20108;-68
2021/11/04 00:51:09;;;;;;;31.55;23.30;;;;;;;9.49;100.00;100652.44;5065565;28;20020;-70
2021/11/04 00:53:36;;;;;;;31.90;21.15;;;;;;;9.85;100.00;100707.31;5070312;28;20085;-70
2021/11/04 00:56:02;;;;;;;28.75;19.52;;;;;;;10.07;100.00;100734.06;5071382;28;20028;-72
2021/11/04 00:58:28;;;;;;;40.85;20.63;;;;;;;10.14;100.00;100728.34;5069858;28;20036;-71
2021/11/04 01:00:54;;;;;;;44.78;21.23;;;;;;;10.10;100.00;100726.44;5065391;28;20051;-72
2021/11/04 01:03:21;;;;;;;46.33;22.77;;;;;;;10.01;100.00;100705.41;5051604;28;20509;-72
2021/11/04 01:05:47;;;;;;;57.05;21.75;;;;;;;10.26;100.00;100721.94;5051413;28;20017;-69
2021/11/04 01:08:13;;;;;;;92.65;22.60;;;;;;;9.76;100.00;100651.88;5050808;28;20029;-71
2021/11/04 01:10:38;;;;;;;99.20;24.15;;;;;;;10.04;100.00;100711.59;5050586;28;20090;-72
2021/11/04 01:13:04;;;;;;;79.68;21.67;;;;;;;10.26;100.00;100729.69;5051700;28;20459;-71
2021/11/04 01:15:29;;;;;;;74.13;22.80;;;;;;;10.25;100.00;100733.06;5050539;28;20091;-73
2021/11/04 01:17:55;;;;;;;127.72;22.90;;;;;;;10.28;100.00;100734.09;5050799;28;20033;-72
2021/11/04 01:20:20;;;;;;;54.50;20.95;;;;;;;10.21;100.00;100719.16;5033261;28;20029;-70
2021/11/04 01:22:48;;;;;;;78.40;21.60;;;;;;;10.31;100.00;100733.34;5051178;28;20471;-71
2021/11/04 01:25:14;;;;;;;190.85;23.13;;;;;;;10.29;100.00;100741.03;5012910;28;20040;-69
2021/11/04 01:27:39;;;;;;;185.13;25.15;;;;;;;10.28;100.00;100746.09;5045052;28;20634;-70
2021/11/04 01:30:06;;;;;;;107.93;24.13;;;;;;;10.13;100.00;100715.34;5030306;28;20056;-69
2021/11/04 01:32:32;;;;;;;119.25;22.88;;;;;;;9.98;100.00;100721.63;5031957;28;20041;-70
2021/11/04 01:34:59;;;;;;;74.93;21.85;;;;;;;9.50;100.00;100638.75;5037247;28;20036;-72
2021/11/04 01:37:25;;;;;;;140.07;24.63;;;;;;;10.05;100.00;100733.09;5051732;28;20392;-70
2021/11/04 01:39:50;;;;;;;258.65;23.73;;;;;;;10.11;100.00;100729.91;5051951;28;20036;-69
2021/11/04 01:42:17;;;;;;;150.88;22.80;;;;;;;9.79;100.00;100673.53;5000110;28;20045;-70
2021/11/04 01:44:43;;;;;;;159.07;22.55;;;;;;;10.11;100.00;100735.94;5051488;28;20025;-70
2021/11/04 01:47:09;;;;;;;145.57;20.50;;;;;;;9.87;100.00;100731.47;5051835;28;20154;-68
2021/11/04 01:49:40;;;;;;;139.57;22.73;;;;;;;9.32;100.00;100688.66;5051794;28;20033;-70
2021/11/04 01:52:06;;;;;;;162.43;22.95;;;;;;;9.41;100.00;100744.88;5051611;28;20146;-72
2021/11/04 01:54:32;;;;;;;98.90;21.48;;;;;;;8.95;100.00;100647.44;5051730;28;20162;-70
2021/11/04 01:56:57;;;;;;;65.60;21.40;;;;;;;9.45;100.00;100749.34;5051529;28;20037;-69
2021/11/04 01:59:23;;;;;;;68.63;20.55;;;;;;;9.58;100.00;100755.94;5051119;28;20068;-67
2021/11/04 02:01:59;;;;;;;130.43;19.67;;;;;;;9.54;100.00;100760.09;5051679;28;20056;-69
2021/11/04 02:04:33;;;;;;;165.55;18.20;;;;;;;9.22;100.00;100709.63;5051429;28;20060;-71
2021/11/04 02:07:15;;;;;;;112.80;18.80;;;;;;;9.26;100.00;100726.13;5051561;28;20064;-70
2021/11/04 02:09:47;;;;;;;116.82;16.10;;;;;;;8.95;100.00;100678.34;5051263;28;20028;-70
2021/11/04 02:12:38;;;;;;;105.78;17.70;;;;;;;9.37;100.00;100759.31;5051653;28;20032;-69
2021/11/04 02:15:05;;;;;;;52.33;17.60;;;;;;;9.40;100.00;100771.47;5051039;28;20522;-70
2021/11/04 02:17:33;;;;;;;34.70;17.85;;;;;;;9.39;100.00;100769.69;5051166;28;20087;-70
2021/11/04 02:20:00;;;;;;;24.17;16.83;;;;;;;9.28;100.00;100771.75;5051296;28;20029;-70
2021/11/04 02:22:28;;;;;;;25.63;18.55;;;;;;;9.34;100.00;100769.47;5051220;28;20040;-70
2021/11/04 02:24:59;;;;;;;22.50;17.33;;;;;;;9.31;100.00;100781.31;5051358;28;20020;-68
2021/11/04 02:27:26;;;;;;;22.98;17.50;;;;;;;9.42;100.00;100775.00;5051224;28;20017;-71
2021/11/04 02:29:52;;;;;;;22.02;17.23;;;;;;;9.33;100.00;100734.22;5051023;28;20028;-68
2021/11/04 02:32:19;;;;;;;20.58;16.25;;;;;;;9.17;100.00;100694.00;5051335;28;20029;-69
2021/11/04 02:34:47;;;;;;;24.35;17.80;;;;;;;9.58;100.00;100773.13;5051111;28;20025;-69
2021/11/04 02:37:13;;;;;;;20.80;16.83;;;;;;;9.50;100.00;100775.34;5051370;28;20028;-69
2021/11/04 02:39:39;;;;;;;20.35;16.92;;;;;;;9.07;100.00;100702.09;5051095;28;20025;-72
2021/11/04 02:45:28;;;;;;;20.70;15.80;;;;;;;9.77;100.00;100790.28;5408459;23;20067;-72
2021/11/04 02:47:53;;;;;;;19.42;16.08;;;;;;;9.76;100.00;100799.75;5015378;28;20477;-70
2021/11/04 02:50:20;;;;;;;18.02;15.57;;;;;;;9.79;100.00;100801.56;5031469;28;20025;-69
2021/11/04 02:52:46;;;;;;;21.70;16.63;;;;;;;9.77;100.00;100798.94;5031362;28;20033;-70
2021/11/04 02:55:11;;;;;;;21.60;16.67;;;;;;;9.68;100.00;100801.06;5031419;28;20395;-71
2021/11/04 02:57:45;;;;;;;23.50;16.98;;;;;;;9.63;100.00;100798.31;5031176;28;20615;-70
2021/11/04 03:00:13;;;;;;;23.60;16.85;;;;;;;9.61;100.00;100779.31;5031250;28;20030;-69
2021/11/04 03:02:39;;;;;;;24.27;17.45;;;;;;;9.72;100.00;100800.44;5031477;28;20034;-71
2021/11/04 03:05:05;;;;;;;23.08;17.92;;;;;;;9.59;100.00;100801.53;5031302;28;20022;-70
2021/11/04 03:07:30;;;;;;;26.48;16.23;;;;;;;9.03;100.00;100703.66;5031367;28;20029;-73
2021/11/04 03:09:56;;;;;;;25.58;17.67;;;;;;;9.55;100.00;100797.06;5031156;28;20412;-69
2021/11/04 03:12:21;;;;;;;28.02;18.27;;;;;;;9.33;100.00;100756.53;5030889;28;20435;-73
2021/11/04 03:14:48;;;;;;;26.15;16.92;;;;;;;9.37;100.00;100766.16;5031006;28;20025;-71
2021/11/04 03:17:14;;;;;;;27.30;18.20;;;;;;;9.60;100.00;100799.84;5031086;28;20028;-70
2021/11/04 03:19:40;;;;;;;30.30;17.45;;;;;;;9.49;100.00;100771.88;5031075;28;20088;-72
2021/11/04 03:22:06;;;;;;;31.13;18.05;;;;;;;9.41;100.00;100737.16;5031200;28;20097;-69
2021/11/04 03:24:32;;;;;;;30.20;17.67;;;;;;;9.92;100.00;100806.47;5031477;28;20123;-72
2021/11/04 03:27:08;;;;;;;32.78;18.02;;;;;;;9.91;100.00;100783.22;5030827;28;20032;-70
2021/11/04 03:29:41;;;;;;;32.63;18.42;;;;;;;10.06;100.00;100798.47;5013526;28;20038;-72
2021/11/04 03:32:13;;;;;;;35.38;19.08;;;;;;;10.22;100.00;100818.06;5025750;28;20037;-72
2021/11/04 03:34:39;;;;;;;31.40;18.90;;;;;;;9.85;100.00;100743.41;5031206;28;20029;-70
2021/11/04 03:37:06;;;;;;;31.10;18.17;;;;;;;10.31;100.00;100814.19;5030816;28;20028;-71
2021/11/04 03:39:34;;;;;;;31.20;19.00;;;;;;;10.38;100.00;100815.41;5033373;28;20148;-71
2021/11/04 03:42:00;;;;;;;34.00;18.30;;;;;;;10.43;100.00;100818.16;5034782;28;20476;-70
2021/11/04 03:44:26;;;;;;;39.17;19.27;;;;;;;9.90;100.00;100725.56;5031809;28;20407;-70
2021/11/04 03:46:54;;;;;;;33.30;19.50;;;;;;;10.45;100.00;100822.56;5033456;28;20410;-68
2021/11/04 03:49:22;;;;;;;39.33;19.42;;;;;;;10.29;100.00;100820.13;5023002;28;20033;-69
2021/11/04 03:51:51;;;;;;;30.75;18.10;;;;;;;10.25;100.00;100828.56;5034236;28;20546;-69
2021/11/04 03:54:18;;;;;;;32.70;20.37;;;;;;;10.15;100.00;100804.03;5034280;28;20025;-70
2021/11/04 03:56:44;;;;;;;32.03;18.52;;;;;;;10.15;100.00;100802.31;4982688;28;20426;-72
2021/11/04 03:59:09;;;;;;;35.78;18.70;;;;;;;9.88;100.00;100766.78;5033792;28;20029;-71
2021/11/04 04:01:35;;;;;;;36.42;20.58;;;;;;;10.12;100.00;100825.44;5034048;28;20036;-70
2021/11/04 04:04:02;;;;;;;50.95;22.35;;;;;;;9.97;100.00;100798.94;5034231;28;20543;-69
2021/11/04 04:06:27;;;;;;;43.88;20.33;;;;;;;9.93;100.00;100821.16;5033803;28;20033;-71
2021/11/04 04:08:54;;;;;;;46.83;21.90;;;;;;;10.01;100.00;100840.41;5034209;28;20033;-69
2021/11/04 04:11:22;;;;;;;62.78;30.70;;;;;;;9.98;100.00;100837.72;4982303;28;20049;-73
2021/11/04 04:13:48;;;;;;;50.35;26.65;;;;;;;9.90;100.00;100827.84;5033840;28;20025;-70
2021/11/04 04:16:13;;;;;;;60.72;28.00;;;;;;;9.99;100.00;100833.41;5016354;28;20476;-71
2021/11/04 04:18:39;;;;;;;59.03;27.52;;;;;;;9.70;100.00;100804.63;5053137;28;20025;-70
2021/11/04 04:21:04;;;;;;;60.00;28.05;;;;;;;9.96;100.00;100839.31;5053487;28;20093;-70
2021/11/04 04:23:29;;;;;;;67.50;28.20;;;;;;;9.56;100.00;100757.59;5053793;28;20028;-70
2021/11/04 04:25:55;;;;;;;58.15;26.67;;;;;;;9.96;100.00;100823.84;5053593;28;20021;-70
2021/11/04 04:28:20;;;;;;;65.53;26.98;;;;;;;10.14;100.00;100836.72;5050969;28;20025;-69
2021/11/04 04:30:46;;;;;;;67.43;27.55;;;;;;;10.19;100.00;100842.94;5033476;28;20021;-70
2021/11/04 04:33:12;;;;;;;65.20;27.77;;;;;;;10.29;100.00;100841.66;5033510;28;20036;-70
2021/11/04 04:35:37;;;;;;;80.07;27.30;;;;;;;10.02;100.00;100797.47;5033383;28;20026;-70
2021/11/04 04:38:03;;;;;;;128.82;74.93;;;;;;;10.34;100.00;100844.41;5033671;28;20029;-70
2021/11/04 04:40:28;;;;;;;79.72;38.28;;;;;;;10.37;100.00;100854.94;5033206;28;20551;-69
2021/11/04 04:42:54;;;;;;;73.03;30.55;;;;;;;10.28;100.00;100846.72;5033338;28;20052;-70
2021/11/04 04:45:19;;;;;;;75.60;23.13;;;;;;;10.27;100.00;100869.09;5032350;28;20062;-72
2021/11/04 04:47:45;;;;;;;73.38;23.40;;;;;;;10.18;100.00;100869.56;5032354;28;20048;-70
2021/11/04 04:50:11;;;;;;;62.00;24.33;;;;;;;10.16;100.00;100878.91;5031593;28;20041;-70
2021/11/04 04:52:37;;;;;;;75.05;24.48;;;;;;;10.17;100.00;100888.44;5032843;28;20033;-70
2021/11/04 04:55:03;;;;;;;76.38;24.65;;;;;;;10.22;100.00;100880.00;5032541;28;20543;-70
2021/11/04 04:57:28;;;;;;;80.82;22.77;;;;;;;10.11;100.00;100849.44;5032791;28;20101;-70
2021/11/04 04:59:57;;;;;;;80.78;23.15;;;;;;;10.24;100.00;100880.97;5032705;28;20044;-69
2021/11/04 05:02:23;;;;;;;64.20;20.45;;;;;;;10.23;100.00;100880.09;5032659;28;20072;-70
2021/11/04 05:04:48;;;;;;;55.35;18.25;;;;;;;10.03;100.00;100862.00;5032476;28;20483;-70
2021/11/04 05:07:15;;;;;;;69.90;17.20;;;;;;;10.15;100.00;100877.16;5032408;28;20087;-70
2021/11/04 05:09:40;;;;;;;46.85;17.23;;;;;;;10.17;100.00;100885.84;5032586;28;20029;-71
2021/11/04 05:12:06;;;;;;;55.28;17.88;;;;;;;10.14;100.00;100877.97;5032134;28;20079;-71
2021/11/04 05:14:31;;;;;;;56.92;17.65;;;;;;;10.20;100.00;100888.59;5045852;28;20383;-71
2021/11/04 05:16:57;;;;;;;42.63;17.40;;;;;;;10.28;100.00;100896.66;5052556;28;20094;-70
2021/11/04 05:19:23;;;;;;;51.75;17.88;;;;;;;10.34;100.00;100880.56;5052044;28;20053;-71
2021/11/04 05:21:48;;;;;;;49.40;18.25;;;;;;;10.43;100.00;100886.16;5052231;28;20471;-71
2021/11/04 05:24:14;;;;;;;51.88;17.15;;;;;;;10.19;100.00;100840.38;5051852;28;20028;-68
2021/11/04 05:26:39;;;;;;;39.95;16.67;;;;;;;10.57;100.00;100893.66;5050581;28;20041;-70
2021/11/04 05:29:05;;;;;;;51.47;17.02;;;;;;;10.58;100.00;100891.13;5030875;28;20056;-69
2021/11/04 05:31:31;;;;;;;52.42;17.65;;;;;;;10.67;100.00;100911.31;5031632;28;20041;-69
2021/11/04 05:33:56;;;;;;;49.80;17.13;;;;;;;10.74;100.00;100908.16;5031841;28;20109;-67
2021/11/04 05:36:23;;;;;;;52.97;16.98;;;;;;;10.38;100.00;100835.16;5031983;28;20040;-69
2021/11/04 05:38:49;;;;;;;58.05;16.80;;;;;;;10.83;100.00;100903.38;5037399;28;20086;-69
2021/11/04 05:41:15;;;;;;;65.95;19.80;;;;;;;10.83;100.00;100900.81;5051785;28;20064;-70
2021/11/04 05:43:41;;;;;;;69.35;30.02;;;;;;;10.46;100.00;100832.09;5048417;28;20159;-70
2021/11/04 05:46:06;;;;;;;64.32;20.88;;;;;;;10.93;100.00;100908.94;5051531;28;20053;-71
2021/11/04 05:48:32;;;;;;;75.93;21.90;;;;;;;10.82;100.00;100901.63;5028852;28;20458;-68
2021/11/04 05:50:57;;;;;;;84.25;22.63;;;;;;;10.44;100.00;100836.31;5031318;28;20503;-69
2021/11/04 05:53:25;;;;;;;94.68;23.33;;;;;;;10.91;100.00;100905.41;5032017;28;20108;-68
2021/11/04 05:55:51;;;;;;;119.88;24.02;;;;;;;10.99;100.00;100907.50;5031464;28;20083;-67
2021/11/04 05:58:17;;;;;;;98.80;21.75;;;;;;;11.07;100.00;100906.97;5031350;28;20480;-67
2021/11/04 06:00:43;;;;;;;88.80;23.27;;;;;;;10.55;100.00;100807.50;5031089;28;20032;-70
2021/11/04 06:03:08;;;;;;;95.32;21.17;;;;;;;10.88;100.00;100874.28;5030961;28;20025;-70
2021/11/04 06:05:34;;;;;;;90.07;20.92;;;;;;;10.92;100.00;100889.97;5031440;28;20122;-69
2021/11/04 06:07:59;;;;;;;81.13;19.75;;;;;;;11.06;100.00;100918.97;5031462;28;20472;-68
2021/11/04 06:10:25;;;;;;;100.57;21.27;;;;;;;11.07;100.00;100925.91;5031175;28;20033;-68
2021/11/04 06:12:50;;;;;;;73.65;21.65;;;;;;;10.74;100.00;100869.44;5030187;28;20380;-72
2021/11/04 06:15:16;;;;;;;72.68;23.00;;;;;;;10.77;100.00;100877.28;5031196;28;20523;-71
2021/11/04 06:17:42;;;;;;;66.85;20.73;;;;;;;11.13;100.00;100938.22;5031178;28;20156;-72
2021/11/04 06:20:08;;;;;;;84.40;21.52;;;;;;;11.24;100.00;100938.66;5030826;28;20037;-71
2021/11/04 06:22:34;;;;;;;130.68;42.13;;;;;;;11.20;100.00;100954.84;5031890;28;20083;-68
2021/11/04 06:24:59;;;;;;;77.63;27.65;;;;;;;10.64;100.00;100859.50;5051097;28;20036;-71
2021/11/04 06:27:25;;;;;;;204.23;102.80;;;;;;;11.13;100.00;100949.44;5051093;28;20033;-70
2021/11/04 06:29:50;;;;;;;101.35;38.17;;;;;;;11.13;100.00;100943.38;5051071;28;20044;-70
2021/11/04 06:32:16;;;;;;;81.65;25.67;;;;;;;11.06;100.00;100942.22;5050924;28;20025;-70
2021/11/04 06:34:42;;;;;;;111.35;40.35;;;;;;;11.13;100.00;100949.44;5040632;28;20029;-71
2021/11/04 06:37:07;;;;;;;78.70;25.25;;;;;;;11.17;100.00;100951.31;5039666;28;20036;-71
2021/11/04 06:39:33;;;;;;;58.35;26.23;;;;;;;10.72;100.00;100867.59;5038942;28;20037;-70
2021/11/04 06:41:58;;;;;;;72.65;26.95;;;;;;;11.29;100.00;100950.97;5035162;28;20017;-70
2021/11/04 06:44:24;;;;;;;71.05;25.67;;;;;;;11.37;100.00;100953.00;5039114;28;20077;-68
2021/11/04 06:46:50;;;;;;;68.10;23.42;;;;;;;11.16;100.00;100918.56;5041330;28;20477;-70
2021/11/04 06:49:18;;;;;;;67.43;25.55;;;;;;;11.06;100.00;100892.28;5040558;28;20017;-71
2021/11/04 06:51:47;;;;;;;58.33;21.55;;;;;;;11.09;100.00;100916.53;5039560;28;20040;-70
2021/11/04 06:54:16;;;;;;;52.70;26.27;;;;;;;10.99;100.00;100885.94;5039518;28;20103;-70
2021/11/04 06:56:44;;;;;;;40.60;16.33;;;;;;;11.12;100.00;100902.88;5035942;28;20076;-70
2021/11/04 06:59:20;;;;;;;30.55;17.85;;;;;;;11.31;100.00;100935.50;5041477;28;21092;-69
2021/11/04 07:01:54;;;;;;;37.65;16.85;;;;;;;11.20;100.00;100914.38;4979918;28;20714;-70
2021/11/04 07:04:35;;;;;;;33.38;14.65;;;;;;;11.45;100.00;100946.41;5038240;28;20040;-71
2021/11/04 07:07:12;;;;;;;39.25;15.90;;;;;;;10.89;100.00;100865.72;4988337;28;20091;-71
2021/11/04 07:09:40;;;;;;;42.35;16.92;;;;;;;11.41;100.00;100944.53;5038648;28;20505;-70
2021/11/04 07:12:12;;;;;;;35.15;15.95;;;;;;;11.41;100.00;100931.59;5041483;28;20029;-70
2021/11/04 07:14:41;;;;;;;22.17;13.23;;;;;;;11.33;100.00;100936.47;5039913;28;20422;-71
2021/11/04 07:17:08;;;;;;;27.42;14.30;;;;;;;11.21;100.00;100921.31;5043853;28;20047;-71
2021/11/04 07:19:33;;;;;;;24.77;13.55;;;;;;;11.41;100.00;100963.50;5044863;28;20115;-71
2021/11/04 07:22:00;;;;;;;23.83;12.48;;;;;;;11.32;100.00;100976.94;5009912;28;20120;-72
2021/11/04 07:24:58;;;;;;;29.85;14.45;;;;;;;10.98;100.00;100898.00;5044288;28;20063;-71
2021/11/04 07:27:45;;;;;;;29.38;15.43;;;;;;;11.29;100.00;100962.97;5042077;28;20472;-71
2021/11/04 07:30:20;;;;;;;26.67;15.90;;;;;;;11.37;100.00;100958.16;5044128;28;20027;-70
2021/11/04 07:32:50;;;;;;;45.78;15.38;;;;;;;11.37;100.00;100953.84;5042390;28;20394;-70
2021/11/04 07:35:17;;;;;;;;;;;;;;;11.40;100.00;100956.59;5043035;28;20033;-69
2021/11/04 07:37:43;;;;;;;27.10;14.70;;;;;;;11.16;100.00;100915.06;5025922;28;19912;-70
2021/11/04 07:40:10;;;;;;;25.38;15.25;;;;;;;11.35;100.00;100932.22;5042327;28;20580;-70
2021/11/04 07:42:36;;;;;;;24.20;15.13;;;;;;;11.40;100.00;100925.56;5039284;28;20499;-70
2021/11/04 07:45:02;;;;;;;22.77;15.27;;;;;;;11.57;100.00;100940.88;5041107;28;20025;-70
2021/11/04 07:47:28;;;;;;;19.25;14.13;;;;;;;11.68;100.00;100960.28;5044513;28;20142;-71
2021/11/04 07:49:54;;;;;;;19.15;13.60;;;;;;;11.75;100.00;100956.22;5042922;28;20530;-70
2021/11/04 07:52:20;;;;;;;15.98;12.15;;;;;;;11.72;100.00;100940.59;5043286;28;20081;-71
2021/11/04 07:54:45;;;;;;;16.05;12.60;;;;;;;11.68;100.00;100951.66;5044217;28;20488;-71
2021/11/04 07:57:11;;;;;;;18.15;13.13;;;;;;;11.66;100.00;100936.06;5042517;28;20080;-70
2021/11/04 07:59:36;;;;;;;17.88;12.60;;;;;;;11.59;100.00;100937.53;5035642;28;20160;-70
2021/11/04 08:02:03;;;;;;;15.45;11.73;;;;;;;11.54;100.00;100922.63;5020404;28;20114;-70
2021/11/04 08:04:29;;;;;;;21.25;12.70;;;;;;;11.82;100.00;100942.72;5044225;28;20037;-69
2021/11/04 08:06:55;;;;;;;15.73;13.63;;;;;;;11.94;100.00;100947.50;5024729;28;20032;-71
2021/11/04 08:09:20;;;;;;;16.17;12.25;;;;;;;11.69;100.00;100900.00;5043367;28;20470;-70
2021/11/04 08:11:47;;;;;;;20.77;11.95;;;;;;;11.62;100.00;100872.13;5026184;28;20080;-70
2021/11/04 08:14:12;;;;;;;16.00;12.23;;;;;;;11.84;100.00;100904.88;5041699;28;20475;-71
2021/11/04 08:16:38;;;;;;;20.23;11.20;;;;;;;12.05;100.00;100951.44;5043984;28;20033;-70
2021/11/04 08:19:03;;;;;;;16.83;9.48;;;;;;;12.16;100.00;100982.88;5043324;28;20036;-71
2021/11/04 08:21:29;;;;;;;14.98;10.25;;;;;;;12.01;100.00;100966.78;5042166;28;20048;-69
2021/11/04 08:23:54;;;;;;;16.42;11.35;;;;;;;12.20;100.00;100977.03;5043854;28;20072;-71
2021/11/04 08:26:20;;;;;;;16.02;12.73;;;;;;;12.20;100.00;100977.03;5040450;28;20030;-68
2021/11/04 08:28:45;;;;;;;16.08;12.90;;;;;;;11.70;100.00;100900.84;5039591;28;20021;-71
2021/11/04 08:31:11;;;;;;;16.50;12.95;;;;;;;12.11;100.00;100955.94;5040485;28;20483;-72
2021/11/04 08:33:37;;;;;;;16.83;15.13;;;;;;;11.87;100.00;100907.56;5041733;28;20026;-70
2021/11/04 08:36:02;;;;;;;18.17;13.43;;;;;;;12.05;100.00;100925.56;5036057;28;20045;-70
2021/11/04 08:38:28;;;;;;;16.65;13.88;;;;;;;11.90;100.00;100901.63;5038325;28;20021;-68
2021/11/04 08:40:53;;;;;;;16.27;12.38;;;;;;;12.24;100.00;100946.97;5024663;28;20536;-72
2021/11/04 08:43:19;;;;;;;15.90;12.60;;;;;;;12.28;100.00;100957.47;5025224;28;20033;-69
2021/11/04 08:45:44;;;;;;;25.55;18.83;;;;;;;12.31;100.00;100977.41;5040871;28;20053;-71
2021/11/04 08:48:10;;;;;;;18.90;13.68;;;;;;;11.87;100.00;100909.28;5042817;28;20021;-69
2021/11/04 08:50:36;;;;;;;21.50;14.88;;;;;;;12.14;100.00;100956.06;5042802;28;20101;-70
2021/11/04 08:53:02;;;;;;;22.20;16.45;;;;;;;12.22;100.00;100949.47;5042717;28;20033;-71
2021/11/04 08:55:29;;;;;;;27.48;17.08;;;;;;;12.23;100.00;100946.06;5041905;28;20052;-70
2021/11/04 08:57:54;;;;;;;22.75;16.17;;;;;;;11.93;100.00;100862.94;5041684;28;20021;-70
2021/11/04 09:00:20;;;;;;;26.60;19.20;;;;;;;12.37;100.00;100969.88;5042990;28;20533;-70
2021/11/04 09:02:46;;;;;;;22.52;18.05;;;;;;;12.31;100.00;100938.56;5037823;28;20029;-70
2021/11/04 09:05:12;;;;;;;21.48;16.63;;;;;;;12.39;100.00;100957.00;5039586;28;20100;-70
2021/11/04 09:07:39;;;;;;;23.42;16.52;;;;;;;12.34;100.00;100950.78;5041020;28;20033;-71
2021/11/04 09:10:07;;;;;;;19.90;15.85;;;;;;;12.38;100.00;100953.53;5031994;28;20028;-70
2021/11/04 09:12:32;;;;;;;22.02;17.17;;;;;;;12.49;100.00;100961.69;5031797;28;20049;-70
2021/11/04 09:14:58;;;;;;;20.70;16.98;;;;;;;12.08;100.00;100889.41;5031993;28;20472;-70
2021/11/04 09:17:23;;;;;;;23.13;19.10;;;;;;;12.34;100.00;100920.59;5031989;28;20018;-69
2021/11/04 09:19:51;;;;;;;22.70;17.42;;;;;;;12.52;100.00;100960.94;5034356;28;20082;-69
2021/11/04 09:22:19;;;;;;;32.35;20.70;;;;;;;12.48;100.00;100940.94;5042697;28;20032;-71
2021/11/04 09:24:44;;;;;;;28.75;19.75;;;;;;;12.16;100.00;100868.13;5040586;28;20049;-69
2021/11/04 09:27:10;;;;;;;33.70;23.40;;;;;;;12.37;100.00;100887.03;5042650;28;20059;-70
2021/11/04 09:29:36;;;;;;;31.27;24.58;;;;;;;11.90;100.00;100804.22;5036862;28;20029;-70
2021/11/04 09:32:05;;;;;;;43.70;31.15;;;;;;;12.23;100.00;100857.19;5005736;28;20021;-70
2021/11/04 09:34:31;;;;;;;54.63;38.33;;;;;;;12.59;100.00;100937.03;5029485;28;20021;-71
2021/11/04 09:36:56;;;;;;;50.28;35.22;;;;;;;12.35;100.00;100908.50;5030844;28;20384;-70
2021/11/04 09:39:23;;;;;;;55.55;36.38;;;;;;;11.86;100.00;100810.06;5031205;28;20037;-72
2021/11/04 09:41:49;;;;;;;53.42;35.33;;;;;;;12.66;100.00;100953.66;5028594;28;20025;-69
2021/11/04 09:44:18;;;;;;;59.08;38.13;;;;;;;12.65;100.00;100955.38;5031466;28;20036;-70
2021/11/04 09:46:43;;;;;;;63.28;40.63;;;;;;;12.71;100.00;100954.69;4991361;28;20046;-70
2021/11/04 09:49:10;;;;;;;66.05;41.80;;;;;;;12.67;100.00;100958.00;5030762;28;20189;-69
2021/11/04 09:51:37;;;;;;;59.08;36.80;;;;;;;12.60;100.00;100941.38;5031685;28;20018;-71
2021/11/04 09:54:03;;;;;;;59.47;35.17;;;;;;;12.61;100.00;100964.75;5031106;28;20025;-71
2021/11/04 09:56:30;;;;;;;62.22;38.00;;;;;;;12.46;100.00;100936.56;5035621;28;20029;-71
2021/11/04 09:58:57;;;;;;;70.07;40.10;;;;;;;12.14;100.00;100871.53;5040806;28;20395;-70
2021/11/04 10:01:25;;;;;;;72.30;41.90;;;;;;;12.61;100.00;100941.44;5036880;28;20103;-68
2021/11/04 10:03:52;;;;;;;69.65;38.35;;;;;;;12.25;100.00;100891.75;5022565;28;20441;-70
2021/11/04 10:06:26;;;;;;;68.28;40.58;;;;;;;12.72;100.00;100936.66;5041529;28;20024;-70
2021/11/04 10:08:53;;;;;;;70.75;40.40;;;;;;;12.73;100.00;100925.44;5038580;28;20017;-71
2021/11/04 10:11:20;;;;;;;77.78;44.15;;;;;;;12.73;100.00;100935.78;5040265;28;20398;-70
2021/11/04 10:13:47;;;;;;;86.28;46.40;;;;;;;12.55;100.00;100886.81;5041872;28;20036;-71
2021/11/04 10:16:16;;;;;;;80.93;45.33;;;;;;;12.64;100.00;100898.34;5041058;28;20029;-70
2021/11/04 10:18:46;;;;;;;81.78;43.78;;;;;;;12.88;100.00;100919.03;5039769;28;20048;-71
2021/11/04 10:21:12;;;;;;;78.32;44.92;;;;;;;12.76;100.00;100906.50;5038914;28;20033;-71
2021/11/04 10:23:48;;;;;;;81.75;46.10;;;;;;;12.91;100.00;100924.31;5039813;28;20540;-69
2021/11/04 10:26:22;;;;;;;77.15;46.47;;;;;;;12.92;100.00;100924.38;5035592;28;20021;-70
2021/11/04 10:28:57;;;;;;;80.93;47.13;;;;;;;12.96;100.00;100920.19;5036547;28;20091;-69
2021/11/04 10:31:22;;;;;;;79.43;47.67;;;;;;;13.04;100.00;100916.13;5032721;28;20061;-69
2021/11/04 10:33:52;;;;;;;86.88;47.38;;;;;;;13.06;100.00;100911.00;5040204;28;20099;-70
2021/11/04 10:36:23;;;;;;;80.40;41.58;;;;;;;12.85;100.00;100878.34;5036985;28;20025;-69
2021/11/04 10:38:51;;;;;;;72.88;42.45;;;;;;;13.15;100.00;100910.44;5040092;28;20029;-69
2021/11/04 10:41:30;;;;;;;71.63;44.90;;;;;;;13.21;100.00;100910.66;5037193;28;20033;-69
2021/11/04 10:44:04;;;;;;;65.78;41.47;;;;;;;13.26;100.00;100904.78;5039629;28;20268;-69
2021/11/04 10:46:38;;;;;;;66.82;44.28;;;;;;;13.32;100.00;100903.22;5004365;28;20057;-70
2021/11/04 10:49:04;;;;;;;61.92;39.10;;;;;;;13.27;100.00;100897.88;5033210;28;20025;-69
2021/11/04 10:51:30;;;;;;;66.25;44.10;;;;;;;13.43;100.00;100914.84;5034689;28;20065;-70
2021/11/04 10:54:02;;;;;;;64.57;41.45;;;;;;;13.38;100.00;100890.47;5030826;28;20029;-69
2021/11/04 10:56:29;;;;;;;60.95;38.08;;;;;;;13.55;100.00;100909.19;5036263;28;20052;-70
2021/11/04 10:59:09;;;;;;;54.15;37.33;;;;;;;13.56;100.00;100903.16;5045034;28;20483;-70
2021/11/04 11:01:47;;;;;;;55.65;38.20;;;;;;;13.59;100.00;100908.44;5044517;28;20112;-70
2021/11/04 11:04:18;;;;;;;50.88;34.60;;;;;;;13.53;100.00;100903.94;5043991;28;20116;-68
2021/11/04 11:07:02;;;;;;;44.83;34.20;;;;;;;13.58;100.00;100902.38;5040171;28;20048;-72